createdAt,value
2022-09-27T00:01:07.310Z,12.10
2022-09-27T00:03:36.620Z,12.10
2022-09-27T00:06:07.490Z,12.10
2022-09-27T00:08:36.458Z,12.00
2022-09-27T00:11:06.877Z,12.00
2022-09-27T00:13:35.021Z,12.20
2022-09-27T00:16:05.374Z,11.90
2022-09-27T00:18:35.027Z,11.90
2022-09-27T00:21:09.136Z,11.90
2022-09-27T00:23:37.385Z,11.80
2022-09-27T00:26:05.841Z,11.90
2022-09-27T00:28:34.285Z,12.00
2022-09-27T00:31:02.222Z,12.00
2022-09-27T00:33:30.384Z,12.00
2022-09-27T00:36:05.431Z,11.90
2022-09-27T00:38:34.610Z,11.90
2022-09-27T00:41:02.603Z,11.90
2022-09-27T00:43:46.229Z,11.80
2022-09-27T00:46:18.284Z,11.90
2022-09-27T00:48:46.669Z,11.80
2022-09-27T00:51:14.895Z,11.90
2022-09-27T00:53:49.246Z,11.90
2022-09-27T00:56:21.489Z,11.90
2022-09-27T00:58:55.095Z,11.80
2022-09-27T01:01:23.666Z,11.90
2022-09-27T01:03:57.556Z,11.80
2022-09-27T01:06:25.540Z,11.90
2022-09-27T01:08:54.760Z,11.90
2022-09-27T01:11:33.577Z,11.90
2022-09-27T01:14:23.663Z,11.90
2022-09-27T01:16:59.957Z,11.90
2022-09-27T01:19:55.979Z,11.80
2022-09-27T01:22:30.873Z,11.80
2022-09-27T01:25:19.046Z,11.80
2022-09-27T01:28:20.008Z,11.80
2022-09-27T01:30:55.144Z,11.90
2022-09-27T01:33:32.642Z,11.80
2022-09-27T01:36:08.984Z,11.80
2022-09-27T01:38:46.162Z,11.60
2022-09-27T01:41:23.565Z,11.70
2022-09-27T01:43:57.891Z,11.70
2022-09-27T01:46:31.113Z,11.70
2022-09-27T01:49:03.189Z,11.80
2022-09-27T01:51:36.302Z,11.70
2022-09-27T01:54:08.650Z,11.70
2022-09-27T01:56:41.619Z,11.70
2022-09-27T01:59:14.495Z,11.70
2022-09-27T02:01:48.092Z,11.70
2022-09-27T02:04:21.961Z,11.70
2022-09-27T02:06:54.446Z,11.70
2022-09-27T02:09:28.793Z,11.60
2022-09-27T02:12:01.809Z,11.60
2022-09-27T02:14:34.186Z,11.60
2022-09-27T02:17:13.345Z,11.60
2022-09-27T02:19:51.738Z,11.60
2022-09-27T02:22:28.382Z,11.60
2022-09-27T02:25:00.183Z,11.50
2022-09-27T02:27:30.888Z,11.50
2022-09-27T02:30:02.748Z,11.50
2022-09-27T02:32:32.439Z,11.60
2022-09-27T02:35:05.157Z,11.40
2022-09-27T02:37:33.474Z,11.50
2022-09-27T02:40:01.705Z,11.60
2022-09-27T02:42:29.765Z,11.50
2022-09-27T02:44:57.829Z,11.40
2022-09-27T02:47:39.632Z,11.40
2022-09-27T02:50:38.466Z,11.40
2022-09-27T02:53:11.343Z,11.40
2022-09-27T02:55:49.595Z,11.40
2022-09-27T02:58:25.155Z,11.40
2022-09-27T03:01:03.056Z,11.40
2022-09-27T03:03:38.125Z,11.40
2022-09-27T03:06:10.770Z,11.40
2022-09-27T03:08:39.586Z,11.20
2022-09-27T03:11:07.608Z,11.20
2022-09-27T03:13:50.162Z,11.30
2022-09-27T03:16:26.729Z,11.20
2022-09-27T03:18:55.949Z,11.20
2022-09-27T03:21:23.868Z,11.30
2022-09-27T03:23:51.704Z,11.20
2022-09-27T03:26:19.552Z,11.20
2022-09-27T03:28:47.419Z,11.20
2022-09-27T03:31:15.716Z,11.30
2022-09-27T03:33:43.635Z,11.30
2022-09-27T03:36:12.983Z,11.30
2022-09-27T03:38:40.841Z,11.20
2022-09-27T03:41:08.711Z,11.20
2022-09-27T03:43:36.563Z,11.20
2022-09-27T03:46:04.537Z,11.20
2022-09-27T03:48:32.385Z,11.10
2022-09-27T03:51:00.277Z,11.20
2022-09-27T03:53:29.545Z,11.20
2022-09-27T03:55:57.452Z,11.20
2022-09-27T03:58:25.334Z,11.20
2022-09-27T04:00:53.536Z,11.20
2022-09-27T04:03:21.392Z,11.20
2022-09-27T04:05:49.353Z,11.10
2022-09-27T04:08:17.229Z,11.00
2022-09-27T04:10:46.491Z,11.00
2022-09-27T04:13:14.405Z,11.10
2022-09-27T04:15:43.329Z,11.10
2022-09-27T04:18:11.155Z,11.10
2022-09-27T04:20:38.999Z,11.10
2022-09-27T04:23:07.019Z,11.10
2022-09-27T04:25:34.958Z,11.10
2022-09-27T04:28:06.063Z,11.10
2022-09-27T04:30:34.001Z,11.10
2022-09-27T04:33:01.907Z,11.10
2022-09-27T04:35:47.254Z,11.10
2022-09-27T04:38:15.290Z,11.00
2022-09-27T04:40:43.242Z,11.10
2022-09-27T04:43:12.536Z,11.00
2022-09-27T04:45:40.477Z,11.00
2022-09-27T04:48:08.363Z,11.00
2022-09-27T04:50:36.670Z,11.10
2022-09-27T04:53:04.728Z,11.00
2022-09-27T04:55:34.203Z,11.00
2022-09-27T04:58:02.535Z,10.90
2022-09-27T05:00:31.832Z,11.00
2022-09-27T05:02:59.802Z,11.00
2022-09-27T05:05:28.063Z,11.00
2022-09-27T05:07:55.960Z,11.10
2022-09-27T05:10:23.810Z,11.00
2022-09-27T05:12:51.668Z,11.00
2022-09-27T05:15:19.477Z,10.90
2022-09-27T05:17:48.691Z,11.00
2022-09-27T05:20:16.848Z,10.90
2022-09-27T05:22:44.688Z,11.00
2022-09-27T05:25:13.067Z,10.90
2022-09-27T05:27:40.901Z,10.90
2022-09-27T05:30:09.389Z,10.90
2022-09-27T05:32:41.534Z,10.80
2022-09-27T05:35:11.027Z,10.80
2022-09-27T05:37:40.579Z,10.90
2022-09-27T05:40:29.383Z,10.90
2022-09-27T05:42:57.807Z,10.80
2022-09-27T05:45:26.348Z,10.90
2022-09-27T05:47:55.721Z,10.70
2022-09-27T05:50:25.280Z,10.70
2022-09-27T05:52:53.659Z,10.60
2022-09-27T05:55:22.091Z,10.80
2022-09-27T05:58:01.001Z,10.80
2022-09-27T06:00:29.832Z,10.80
2022-09-27T06:02:58.904Z,10.70
2022-09-27T06:05:29.875Z,10.70
2022-09-27T06:08:00.799Z,10.90
2022-09-27T06:10:29.705Z,10.80
2022-09-27T06:13:01.241Z,10.80
2022-09-27T06:15:29.826Z,10.90
2022-09-27T06:17:58.930Z,10.90
2022-09-27T06:20:28.268Z,10.70
2022-09-27T06:22:56.196Z,10.50
2022-09-27T06:25:24.372Z,10.50
2022-09-27T06:27:52.306Z,10.40
2022-09-27T06:30:20.653Z,10.70
2022-09-27T06:32:48.568Z,10.60
2022-09-27T06:35:16.535Z,10.70
2022-09-27T06:37:46.228Z,10.70
2022-09-27T06:40:14.233Z,10.70
2022-09-27T06:42:42.122Z,10.80
2022-09-27T06:45:10.833Z,10.90
2022-09-27T06:47:39.489Z,10.80
2022-09-27T06:50:08.430Z,10.70
2022-09-27T06:52:37.049Z,10.70
2022-09-27T06:55:07.539Z,10.70
2022-09-27T06:57:52.910Z,10.70
2022-09-27T07:00:27.388Z,10.60
2022-09-27T07:02:58.413Z,10.60
2022-09-27T07:05:26.818Z,10.80
2022-09-27T07:07:57.530Z,10.60
2022-09-27T07:10:29.441Z,10.70
2022-09-27T07:12:58.459Z,10.80
2022-09-27T07:15:26.313Z,10.90
2022-09-27T07:17:59.205Z,11.10
2022-09-27T07:20:27.304Z,11.10
2022-09-27T07:22:55.183Z,11.00
2022-09-27T07:25:23.395Z,11.10
2022-09-27T07:27:53.526Z,11.20
2022-09-27T07:30:23.156Z,11.20
2022-09-27T07:32:51.390Z,11.20
2022-09-27T07:35:19.329Z,11.00
2022-09-27T07:37:47.150Z,11.10
2022-09-27T07:40:15.067Z,11.00
2022-09-27T07:42:42.869Z,11.00
2022-09-27T07:45:12.485Z,11.00
2022-09-27T07:47:40.965Z,11.00
2022-09-27T07:50:11.371Z,11.00
2022-09-27T07:52:43.091Z,11.20
2022-09-27T07:55:11.897Z,11.30
2022-09-27T07:57:40.347Z,11.20
2022-09-27T08:00:10.389Z,11.30
2022-09-27T08:02:39.668Z,11.30
2022-09-27T08:05:08.411Z,11.10
2022-09-27T08:07:36.399Z,10.40
2022-09-27T08:10:04.667Z,10.50
2022-09-27T08:12:32.592Z,10.60
2022-09-27T08:15:01.491Z,10.70
2022-09-27T08:17:29.710Z,10.70
2022-09-27T08:20:00.150Z,10.80
2022-09-27T08:22:27.979Z,10.80
2022-09-27T08:24:55.857Z,10.80
2022-09-27T08:27:23.697Z,11.00
2022-09-27T08:29:52.018Z,11.00
2022-09-27T08:32:23.361Z,11.10
2022-09-27T08:34:51.568Z,11.00
2022-09-27T08:37:20.818Z,11.10
2022-09-27T08:39:48.680Z,11.00
2022-09-27T08:42:27.325Z,10.90
2022-09-27T08:45:03.721Z,10.80
2022-09-27T08:47:37.838Z,10.90
2022-09-27T08:50:15.974Z,11.20
2022-09-27T08:52:50.718Z,11.20
2022-09-27T08:55:25.546Z,11.10
2022-09-27T08:57:57.927Z,11.20
2022-09-27T09:00:26.418Z,11.30
2022-09-27T09:02:54.328Z,11.30
2022-09-27T09:05:30.027Z,11.30
2022-09-27T09:08:17.080Z,11.30
2022-09-27T09:11:10.151Z,11.20
2022-09-27T09:14:00.317Z,11.40
2022-09-27T09:16:40.113Z,11.30
2022-09-27T09:19:23.633Z,11.30
2022-09-27T09:22:00.706Z,11.10
2022-09-27T09:24:46.409Z,11.30
2022-09-27T09:27:23.456Z,11.50
2022-09-27T09:30:18.388Z,11.50
2022-09-27T09:33:11.970Z,11.60
2022-09-27T09:35:43.952Z,11.90
2022-09-27T09:38:16.973Z,11.90
2022-09-27T09:40:49.703Z,12.00
2022-09-27T09:43:22.085Z,11.80
2022-09-27T09:45:55.715Z,12.00
2022-09-27T09:48:31.285Z,12.10
2022-09-27T09:51:01.987Z,12.10
2022-09-27T09:53:41.635Z,12.20
2022-09-27T09:56:18.382Z,12.20
2022-09-27T09:58:51.018Z,12.20
2022-09-27T10:01:22.071Z,12.40
2022-09-27T10:03:50.334Z,12.30
2022-09-27T10:06:19.175Z,12.30
2022-09-27T10:08:47.444Z,11.60
2022-09-27T10:11:23.647Z,12.10
2022-09-27T10:13:51.649Z,12.30
2022-09-27T10:16:21.554Z,12.40
2022-09-27T10:18:52.826Z,12.20
2022-09-27T10:21:24.017Z,12.50
2022-09-27T10:24:13.735Z,12.30
2022-09-27T10:26:50.918Z,12.20
2022-09-27T10:29:24.785Z,12.30
2022-09-27T10:31:53.684Z,12.40
2022-09-27T10:34:27.728Z,12.50
2022-09-27T10:37:08.350Z,12.40
2022-09-27T10:39:37.431Z,12.20
2022-09-27T10:42:21.803Z,12.40
2022-09-27T10:44:50.148Z,12.40
2022-09-27T10:47:23.609Z,12.30
2022-09-27T10:49:52.790Z,12.40
2022-09-27T10:52:22.635Z,12.60
2022-09-27T10:54:57.909Z,12.40
2022-09-27T10:57:28.843Z,12.60
2022-09-27T10:59:59.260Z,12.70
2022-09-27T11:02:32.296Z,12.80
2022-09-27T11:05:06.643Z,12.70
2022-09-27T11:07:37.234Z,12.80
2022-09-27T11:10:23.336Z,12.60
2022-09-27T11:13:08.440Z,12.50
2022-09-27T11:15:53.078Z,12.50
2022-09-27T11:18:31.562Z,11.00
2022-09-27T11:21:08.725Z,11.70
2022-09-27T11:23:51.361Z,12.20
2022-09-27T11:26:32.235Z,12.30
2022-09-27T11:29:12.520Z,11.60
2022-09-27T11:31:48.903Z,12.10
2022-09-27T11:34:40.454Z,12.30
2022-09-27T11:37:19.937Z,12.60
2022-09-27T11:40:02.275Z,12.70
2022-09-27T11:42:53.811Z,13.00
2022-09-27T11:45:45.375Z,13.10
2022-09-27T11:48:31.006Z,13.00
2022-09-27T11:51:10.980Z,13.00
2022-09-27T11:54:14.679Z,13.30
2022-09-27T11:56:49.156Z,13.10
2022-09-27T11:59:35.623Z,13.00
2022-09-27T12:02:18.077Z,13.00
2022-09-27T12:04:59.042Z,12.50
2022-09-27T12:07:36.916Z,11.80
2022-09-27T12:10:10.777Z,11.80
2022-09-27T12:12:44.044Z,11.60
2022-09-27T12:15:17.738Z,11.90
2022-09-27T12:17:50.323Z,12.20
2022-09-27T12:20:22.317Z,12.50
2022-09-27T12:22:59.456Z,12.70
2022-09-27T12:25:31.379Z,13.00
2022-09-27T12:28:06.330Z,13.10
2022-09-27T12:30:38.720Z,12.90
2022-09-27T12:33:13.981Z,12.40
2022-09-27T12:35:47.501Z,12.60
2022-09-27T12:38:20.693Z,12.50
2022-09-27T12:40:53.186Z,12.30
2022-09-27T12:43:23.639Z,12.00
2022-09-27T12:46:03.518Z,12.50
2022-09-27T12:48:44.909Z,13.20
2022-09-27T12:51:14.737Z,12.60
2022-09-27T12:53:59.084Z,12.40
2022-09-27T12:56:40.285Z,12.90
2022-09-27T12:59:27.636Z,13.20
2022-09-27T13:03:14.641Z,13.20
2022-09-27T13:06:13.317Z,13.50
2022-09-27T13:09:07.276Z,13.40
2022-09-27T13:11:45.727Z,13.00
2022-09-27T13:14:20.207Z,13.20
2022-09-27T13:16:49.320Z,13.40
2022-09-27T13:19:42.409Z,13.40
2022-09-27T13:22:27.328Z,13.30
2022-09-27T13:24:55.258Z,13.40
2022-09-27T13:27:46.794Z,13.50
2022-09-27T13:30:48.002Z,13.40
2022-09-27T13:33:46.703Z,13.40
2022-09-27T13:36:32.729Z,13.30
2022-09-27T13:39:22.854Z,13.30
2022-09-27T13:42:16.741Z,13.40
2022-09-27T13:45:00.007Z,13.20
2022-09-27T13:47:36.119Z,13.50
2022-09-27T13:50:17.158Z,13.50
2022-09-27T13:52:54.441Z,13.70
2022-09-27T13:55:45.514Z,12.80
2022-09-27T13:58:34.897Z,13.30
2022-09-27T14:01:10.455Z,13.40
2022-09-27T14:03:54.609Z,13.30
2022-09-27T14:06:26.680Z,13.20
2022-09-27T14:08:57.426Z,13.20
2022-09-27T14:11:31.581Z,13.20
2022-09-27T14:14:02.019Z,13.10
2022-09-27T14:16:34.749Z,13.00
2022-09-27T14:19:03.166Z,13.20
2022-09-27T14:21:33.305Z,13.10
2022-09-27T14:24:26.355Z,13.10
2022-09-27T14:27:11.131Z,13.20
2022-09-27T14:29:42.912Z,13.20
2022-09-27T14:32:13.093Z,13.20
2022-09-27T14:34:41.581Z,13.20
2022-09-27T14:37:24.018Z,13.00
2022-09-27T14:39:57.698Z,12.90
2022-09-27T14:42:29.315Z,12.80
2022-09-27T14:45:02.087Z,12.90
2022-09-27T14:47:29.878Z,12.90
2022-09-27T14:50:00.154Z,12.80
2022-09-27T14:52:31.240Z,12.80
2022-09-27T14:55:01.483Z,12.90
2022-09-27T14:57:34.275Z,12.80
2022-09-27T15:00:16.684Z,12.80
2022-09-27T15:02:45.047Z,12.80
2022-09-27T15:05:16.721Z,12.90
2022-09-27T15:07:46.280Z,12.80
2022-09-27T15:10:18.029Z,12.80
2022-09-27T15:12:51.881Z,12.80
2022-09-27T15:15:23.621Z,12.80
2022-09-27T15:17:51.553Z,12.80
2022-09-27T15:20:30.915Z,12.80
2022-09-27T15:23:03.308Z,12.80
2022-09-27T15:25:34.421Z,12.70
2022-09-27T15:28:06.504Z,12.70
2022-09-27T15:30:39.419Z,12.70
2022-09-27T15:33:19.321Z,12.60
2022-09-27T15:35:50.962Z,12.70
2022-09-27T15:38:27.864Z,12.60
2022-09-27T15:41:04.699Z,12.50
2022-09-27T15:43:36.943Z,12.60
2022-09-27T15:46:07.213Z,12.40
2022-09-27T15:48:37.542Z,12.40
2022-09-27T15:51:39.266Z,12.40
2022-09-27T15:54:07.038Z,12.40
2022-09-27T15:56:35.107Z,11.30
2022-09-27T15:59:04.362Z,11.00
2022-09-27T16:01:32.291Z,11.90
2022-09-27T16:04:00.451Z,12.10
2022-09-27T16:06:29.354Z,11.90
2022-09-27T16:08:57.160Z,12.20
2022-09-27T16:11:24.902Z,12.10
2022-09-27T16:13:52.893Z,12.30
2022-09-27T16:16:23.260Z,12.20
2022-09-27T16:18:51.101Z,12.20
2022-09-27T16:21:18.872Z,12.20
2022-09-27T16:23:46.617Z,12.10
2022-09-27T16:26:14.477Z,12.10
2022-09-27T16:28:42.264Z,12.10
2022-09-27T16:31:11.332Z,11.90
2022-09-27T16:33:40.489Z,11.80
2022-09-27T16:36:14.353Z,11.90
2022-09-27T16:38:42.340Z,12.00
2022-09-27T16:41:10.086Z,12.10
2022-09-27T16:43:37.828Z,12.10
2022-09-27T16:46:09.007Z,12.00
2022-09-27T16:48:36.825Z,12.00
2022-09-27T16:51:25.398Z,12.00
2022-09-27T16:53:53.205Z,11.20
2022-09-27T16:56:21.227Z,10.80
2022-09-27T16:58:49.083Z,11.20
2022-09-27T17:01:17.490Z,11.20
2022-09-27T17:03:49.533Z,11.70
2022-09-27T17:06:19.395Z,11.70
2022-09-27T17:08:49.379Z,11.30
2022-09-27T17:11:18.872Z,11.60
2022-09-27T17:13:49.103Z,11.70
2022-09-27T17:16:17.166Z,11.60
2022-09-27T17:18:45.522Z,11.70
2022-09-27T17:21:13.362Z,11.80
2022-09-27T17:23:42.535Z,11.70
2022-09-27T17:26:18.828Z,11.70
2022-09-27T17:28:47.131Z,11.60
2022-09-27T17:31:17.526Z,11.60
2022-09-27T17:33:47.797Z,11.60
2022-09-27T17:36:17.735Z,11.50
2022-09-27T17:38:48.415Z,11.40
2022-09-27T17:41:19.342Z,11.30
2022-09-27T17:43:50.037Z,11.40
2022-09-27T17:46:20.194Z,11.50
2022-09-27T17:49:06.735Z,11.50
2022-09-27T17:51:35.624Z,11.50
2022-09-27T17:54:07.173Z,11.60
2022-09-27T17:56:37.658Z,11.60
2022-09-27T17:59:06.143Z,11.60
2022-09-27T18:01:34.374Z,11.50
2022-09-27T18:04:04.262Z,11.40
2022-09-27T18:06:32.114Z,11.20
2022-09-27T18:08:59.857Z,11.40
2022-09-27T18:11:28.941Z,11.30
2022-09-27T18:13:59.941Z,11.30
2022-09-27T18:16:32.366Z,11.40
2022-09-27T18:19:00.899Z,11.40
2022-09-27T18:21:31.438Z,11.40
2022-09-27T18:24:02.824Z,11.30
2022-09-27T18:26:32.782Z,11.40
2022-09-27T18:29:03.225Z,11.30
2022-09-27T18:31:31.123Z,11.30
2022-09-27T18:33:59.033Z,11.30
2022-09-27T18:36:28.533Z,11.30
2022-09-27T18:38:57.999Z,11.30
2022-09-27T18:41:28.087Z,11.20
2022-09-27T18:43:59.859Z,11.30
2022-09-27T18:46:37.389Z,11.30
2022-09-27T18:49:06.999Z,11.20
2022-09-27T18:51:37.379Z,11.20
2022-09-27T18:54:08.065Z,11.20
2022-09-27T18:56:39.025Z,11.20
2022-09-27T18:59:09.736Z,11.20
2022-09-27T19:01:39.468Z,11.20
2022-09-27T19:04:08.200Z,11.10
2022-09-27T19:06:36.779Z,11.20
2022-09-27T19:09:05.821Z,11.10
2022-09-27T19:11:34.253Z,11.10
2022-09-27T19:14:02.401Z,11.10
2022-09-27T19:16:31.769Z,11.00
2022-09-27T19:18:59.676Z,11.00
2022-09-27T19:21:29.085Z,10.90
2022-09-27T19:23:57.474Z,10.90
2022-09-27T19:26:26.915Z,10.90
2022-09-27T19:28:55.066Z,10.90
2022-09-27T19:31:25.258Z,10.90
2022-09-27T19:33:59.777Z,10.90
2022-09-27T19:36:28.637Z,10.90
2022-09-27T19:38:58.555Z,10.90
2022-09-27T19:41:27.289Z,10.90
2022-09-27T19:43:55.865Z,10.80
2022-09-27T19:46:25.847Z,10.80
2022-09-27T19:48:56.105Z,10.80
2022-09-27T19:51:26.600Z,10.80
2022-09-27T19:53:55.476Z,10.80
2022-09-27T19:56:24.269Z,10.80
2022-09-27T19:58:52.360Z,10.80
2022-09-27T20:01:22.053Z,10.80
2022-09-27T20:03:51.585Z,10.90
2022-09-27T20:06:21.721Z,10.70
2022-09-27T20:08:50.309Z,10.70
2022-09-27T20:11:19.685Z,10.70
2022-09-27T20:13:47.495Z,10.70
2022-09-27T20:16:17.417Z,10.70
2022-09-27T20:18:46.967Z,10.70
2022-09-27T20:21:15.305Z,10.60
2022-09-27T20:23:44.629Z,10.60
2022-09-27T20:26:14.334Z,10.60
2022-09-27T20:28:43.675Z,10.70
2022-09-27T20:31:13.340Z,10.70
2022-09-27T20:33:43.946Z,10.60
2022-09-27T20:36:13.389Z,10.70
2022-09-27T20:38:41.535Z,10.60
2022-09-27T20:41:10.848Z,10.60
2022-09-27T20:43:39.161Z,10.60
2022-09-27T20:46:08.766Z,10.60
2022-09-27T20:48:38.109Z,10.60
2022-09-27T20:51:06.447Z,10.60
2022-09-27T20:53:34.811Z,10.60
2022-09-27T20:56:03.525Z,10.60
2022-09-27T20:58:33.285Z,10.60
2022-09-27T21:01:05.713Z,10.60
2022-09-27T21:03:33.690Z,10.60
2022-09-27T21:06:02.210Z,10.50
2022-09-27T21:08:31.321Z,10.50
2022-09-27T21:11:05.642Z,10.50
2022-09-27T21:13:35.348Z,10.40
2022-09-27T21:16:05.020Z,10.50
2022-09-27T21:18:32.981Z,10.50
2022-09-27T21:21:01.790Z,10.50
2022-09-27T21:23:30.467Z,10.50
2022-09-27T21:26:06.221Z,10.40
2022-09-27T21:28:37.121Z,10.40
2022-09-27T21:31:06.487Z,10.40
2022-09-27T21:33:34.829Z,10.40
2022-09-27T21:36:03.611Z,10.40
2022-09-27T21:38:31.937Z,10.00
2022-09-27T21:41:03.074Z,9.30
2022-09-27T21:43:35.721Z,9.80
2022-09-27T21:46:05.311Z,9.50
2022-09-27T21:48:33.558Z,9.50
2022-09-27T21:51:05.918Z,9.50
2022-09-27T21:53:33.977Z,9.90
2022-09-27T21:56:02.387Z,9.80
2022-09-27T21:58:33.057Z,10.10
2022-09-27T22:01:07.660Z,9.90
2022-09-27T22:03:36.160Z,10.10
2022-09-27T22:06:05.469Z,10.10
2022-09-27T22:08:33.629Z,9.90
2022-09-27T22:11:01.428Z,9.90
2022-09-27T22:13:29.364Z,10.10
2022-09-27T22:15:57.466Z,10.10
2022-09-27T22:18:26.929Z,9.80
2022-09-27T22:21:00.856Z,9.90
2022-09-27T22:23:28.649Z,10.00
2022-09-27T22:25:57.012Z,10.00
2022-09-27T22:28:25.056Z,10.00
2022-09-27T22:30:52.844Z,10.10
2022-09-27T22:33:20.707Z,10.00
2022-09-27T22:35:50.217Z,10.00
2022-09-27T22:38:17.998Z,10.00
2022-09-27T22:40:56.194Z,10.00
2022-09-27T22:43:26.162Z,10.00
2022-09-27T22:45:53.897Z,9.90
2022-09-27T22:48:21.676Z,9.90
2022-09-27T22:50:50.805Z,9.90
2022-09-27T22:53:18.603Z,9.90
2022-09-27T22:56:00.695Z,10.00
2022-09-27T23:01:10.248Z,9.90
2022-09-27T23:03:38.173Z,9.90
2022-09-27T23:06:08.161Z,9.90
2022-09-27T23:08:36.588Z,9.90
2022-09-27T23:11:06.096Z,9.80
2022-09-27T23:13:35.126Z,9.80
2022-09-27T23:16:04.311Z,9.70
2022-09-27T23:18:33.128Z,9.80
2022-09-27T23:36:35.533Z,9.80
2022-09-27T23:46:57.153Z,9.80
